createdAt,value
2023-02-11T00:02:00.437Z,56.50
2023-02-11T00:04:34.990Z,56.40
2023-02-11T00:07:08.608Z,54.40
2023-02-11T00:09:43.330Z,52.80
2023-02-11T00:12:19.741Z,45.70
2023-02-11T00:14:54.109Z,43.80
2023-02-11T00:17:28.017Z,36.70
2023-02-11T00:20:01.829Z,43.70
2023-02-11T00:22:36.654Z,32.20
2023-02-11T00:25:11.382Z,37.30
2023-02-11T00:27:45.196Z,41.90
2023-02-11T00:30:19.975Z,40.50
2023-02-11T00:32:53.730Z,33.80
2023-02-11T00:35:27.501Z,39.50
2023-02-11T00:38:01.703Z,35.30
2023-02-11T00:40:35.544Z,34.00
2023-02-11T00:43:10.710Z,36.00
2023-02-11T00:45:44.654Z,35.60
2023-02-11T00:48:18.909Z,35.40
2023-02-11T00:50:52.709Z,36.40
2023-02-11T00:53:26.976Z,40.60
2023-02-11T00:56:02.096Z,38.30
2023-02-11T00:58:36.635Z,36.00
2023-02-11T01:01:10.805Z,37.40
2023-02-11T01:03:45.204Z,36.60
2023-02-11T01:06:19.773Z,45.90
2023-02-11T01:08:53.978Z,41.60
2023-02-11T01:11:28.123Z,38.00
2023-02-11T01:14:02.119Z,36.70
2023-02-11T01:16:36.878Z,42.60
2023-02-11T01:19:10.955Z,37.20
2023-02-11T01:21:45.048Z,39.40
2023-02-11T01:24:18.788Z,35.70
2023-02-11T01:26:52.862Z,42.40
2023-02-11T01:29:27.189Z,39.50
2023-02-11T01:32:02.782Z,37.60
2023-02-11T01:34:36.714Z,43.10
2023-02-11T01:37:10.816Z,38.80
2023-02-11T01:39:44.669Z,40.50
2023-02-11T01:42:23.298Z,37.20
2023-02-11T01:45:02.297Z,40.30
2023-02-11T01:47:36.356Z,39.80
2023-02-11T01:50:12.639Z,39.80
2023-02-11T01:52:48.039Z,36.70
2023-02-11T01:55:40.839Z,37.70
2023-02-11T01:58:14.789Z,44.90
2023-02-11T02:00:49.950Z,42.60
2023-02-11T02:03:25.880Z,46.10
2023-02-11T02:06:12.173Z,39.90
2023-02-11T02:08:54.770Z,39.00
2023-02-11T02:11:29.242Z,36.90
2023-02-11T02:14:03.123Z,40.70
2023-02-11T02:16:39.122Z,38.90
2023-02-11T02:19:54.977Z,41.50
2023-02-11T02:23:17.488Z,40.30
2023-02-11T02:26:28.309Z,39.00
2023-02-11T02:30:13.945Z,38.80
2023-02-11T02:33:22.520Z,40.10
2023-02-11T02:36:10.557Z,43.70
2023-02-11T02:38:54.238Z,39.60
2023-02-11T02:41:34.061Z,41.10
2023-02-11T02:44:08.527Z,39.40
2023-02-11T02:46:42.381Z,41.10
2023-02-11T02:49:19.168Z,41.00
2023-02-11T02:52:17.432Z,37.90
2023-02-11T02:55:19.182Z,32.70
2023-02-11T02:58:19.306Z,37.20
2023-02-11T03:01:05.678Z,36.30
2023-02-11T03:03:53.479Z,32.60
2023-02-11T03:06:35.451Z,29.90
2023-02-11T03:09:17.527Z,26.00
2023-02-11T03:11:51.641Z,29.40
2023-02-11T03:14:30.274Z,37.30
2023-02-11T03:17:09.077Z,31.50
2023-02-11T03:19:47.697Z,35.30
2023-02-11T03:22:33.851Z,31.40
2023-02-11T03:25:10.010Z,40.20
2023-02-11T03:27:53.839Z,31.80
2023-02-11T03:30:36.301Z,33.60
2023-02-11T03:33:26.193Z,33.90
2023-02-11T03:36:04.707Z,34.70
2023-02-11T03:38:46.062Z,33.60
2023-02-11T03:41:25.014Z,37.20
2023-02-11T03:44:02.640Z,39.40
2023-02-11T03:46:41.747Z,36.70
2023-02-11T03:49:20.111Z,35.90
2023-02-11T03:51:57.068Z,32.70
2023-02-11T03:54:34.326Z,36.20
2023-02-11T03:57:09.176Z,30.00
2023-02-11T03:59:57.700Z,29.70
2023-02-11T04:02:36.135Z,33.70
2023-02-11T04:05:14.399Z,30.30
2023-02-11T04:07:48.175Z,33.30
2023-02-11T04:10:22.576Z,30.70
2023-02-11T04:12:56.441Z,28.60
2023-02-11T04:15:30.365Z,34.20
2023-02-11T04:18:04.686Z,27.60
2023-02-11T04:20:38.697Z,37.90
2023-02-11T04:23:12.607Z,31.60
2023-02-11T04:25:46.827Z,31.60
2023-02-11T04:28:21.015Z,34.50
2023-02-11T04:30:55.453Z,32.20
2023-02-11T04:33:29.467Z,34.90
2023-02-11T04:36:03.177Z,28.80
2023-02-11T04:38:37.395Z,34.70
2023-02-11T04:41:11.394Z,36.40
2023-02-11T04:43:45.127Z,33.50
2023-02-11T04:46:19.105Z,30.00
2023-02-11T04:48:53.312Z,32.60
2023-02-11T04:51:27.121Z,33.10
2023-02-11T04:54:00.952Z,35.60
2023-02-11T04:56:34.824Z,24.90
2023-02-11T04:59:09.894Z,34.00
2023-02-11T05:01:43.891Z,27.70
2023-02-11T05:04:18.578Z,33.00
2023-02-11T05:06:52.943Z,28.50
2023-02-11T05:09:26.892Z,29.20
2023-02-11T05:12:00.650Z,32.20
2023-02-11T05:14:34.560Z,28.80
2023-02-11T05:17:08.674Z,30.80
2023-02-11T05:19:42.671Z,20.50
2023-02-11T05:22:16.650Z,29.60
2023-02-11T05:24:50.548Z,29.30
2023-02-11T05:27:24.586Z,33.30
2023-02-11T05:29:58.421Z,34.20
2023-02-11T05:32:32.399Z,32.30
2023-02-11T05:35:07.018Z,40.50
2023-02-11T05:37:41.184Z,32.40
2023-02-11T05:40:16.661Z,32.10
2023-02-11T05:42:50.457Z,34.50
2023-02-11T05:45:24.354Z,27.90
2023-02-11T05:47:58.366Z,27.50
2023-02-11T05:50:32.550Z,24.10
2023-02-11T05:53:06.946Z,30.10
2023-02-11T05:55:41.056Z,27.80
2023-02-11T05:58:14.872Z,36.30
2023-02-11T06:00:48.770Z,29.10
2023-02-11T06:03:22.755Z,32.00
2023-02-11T06:05:56.846Z,31.20
2023-02-11T06:08:31.044Z,36.70
2023-02-11T06:11:05.011Z,31.80
2023-02-11T06:13:39.788Z,33.60
2023-02-11T06:16:13.601Z,31.60
2023-02-11T06:18:47.444Z,31.30
2023-02-11T06:21:21.263Z,26.50
2023-02-11T06:23:55.186Z,31.50
2023-02-11T06:26:29.181Z,32.50
2023-02-11T06:29:04.045Z,30.30
2023-02-11T06:31:40.139Z,33.30
2023-02-11T06:34:14.335Z,30.90
2023-02-11T06:36:48.225Z,30.30
2023-02-11T06:39:22.068Z,29.80
2023-02-11T06:41:55.933Z,31.30
2023-02-11T06:44:29.778Z,33.10
2023-02-11T06:47:03.694Z,29.40
2023-02-11T06:49:37.574Z,32.10
2023-02-11T06:52:11.497Z,34.10
2023-02-11T06:54:45.273Z,33.70
2023-02-11T06:57:18.960Z,38.10
2023-02-11T06:59:53.333Z,23.20
2023-02-11T07:02:28.894Z,32.80
2023-02-11T07:05:02.603Z,30.80
2023-02-11T07:07:36.608Z,33.60
2023-02-11T07:10:12.688Z,30.30
2023-02-11T07:12:46.573Z,34.30
2023-02-11T07:15:21.360Z,29.20
2023-02-11T07:17:55.165Z,29.60
2023-02-11T07:20:29.851Z,32.90
2023-02-11T07:23:03.827Z,38.20
2023-02-11T07:25:38.128Z,33.20
2023-02-11T07:28:12.038Z,33.60
2023-02-11T07:30:45.746Z,33.20
2023-02-11T07:33:19.549Z,36.70
2023-02-11T07:35:53.448Z,34.40
2023-02-11T07:38:27.655Z,29.50
2023-02-11T07:41:05.619Z,36.80
2023-02-11T07:43:40.874Z,34.80
2023-02-11T07:46:19.853Z,38.30
2023-02-11T07:48:55.126Z,35.60
2023-02-11T07:51:32.813Z,38.90
2023-02-11T07:54:07.540Z,31.30
2023-02-11T07:56:41.511Z,33.60
2023-02-11T07:59:17.093Z,30.10
2023-02-11T08:01:51.677Z,31.40
2023-02-11T08:04:26.208Z,36.10
2023-02-11T08:07:00.070Z,35.20
2023-02-11T08:09:34.647Z,38.10
2023-02-11T08:12:09.515Z,31.60
2023-02-11T08:14:43.723Z,34.90
2023-02-11T08:17:17.780Z,27.00
2023-02-11T08:19:52.413Z,35.00
2023-02-11T08:22:26.429Z,28.60
2023-02-11T08:25:00.217Z,37.00
2023-02-11T08:27:34.689Z,32.20
2023-02-11T08:30:10.929Z,29.50
2023-02-11T08:32:44.917Z,31.60
2023-02-11T08:35:19.144Z,30.10
2023-02-11T08:37:53.246Z,27.00
2023-02-11T08:40:27.939Z,27.40
2023-02-11T08:43:01.984Z,34.00
2023-02-11T08:45:35.821Z,34.40
2023-02-11T08:48:10.107Z,28.10
2023-02-11T08:50:44.667Z,33.70
2023-02-11T08:53:18.669Z,34.00
2023-02-11T08:55:55.836Z,32.80
2023-02-11T08:58:30.381Z,35.40
2023-02-11T09:01:09.851Z,32.00
2023-02-11T09:03:43.656Z,32.60
2023-02-11T09:06:18.794Z,34.60
2023-02-11T09:08:56.165Z,36.10
2023-02-11T09:11:35.052Z,35.10
2023-02-11T09:14:09.174Z,33.50
2023-02-11T09:16:44.143Z,25.80
2023-02-11T09:19:18.873Z,27.60
2023-02-11T09:21:52.822Z,33.90
2023-02-11T09:24:26.671Z,28.00
2023-02-11T09:27:00.378Z,33.60
2023-02-11T09:29:34.255Z,28.80
2023-02-11T09:32:09.995Z,28.60
2023-02-11T09:34:44.424Z,39.10
2023-02-11T09:37:18.242Z,34.30
2023-02-11T09:39:54.691Z,34.40
2023-02-11T09:42:49.297Z,36.60
2023-02-11T09:45:26.669Z,31.90
2023-02-11T09:48:06.439Z,34.70
2023-02-11T09:50:44.649Z,31.70
2023-02-11T09:53:25.588Z,32.60
2023-02-11T09:56:03.460Z,36.70
2023-02-11T09:58:40.559Z,30.70
2023-02-11T10:01:29.428Z,33.30
2023-02-11T10:04:15.390Z,30.70
2023-02-11T10:06:54.835Z,33.00
2023-02-11T10:09:57.822Z,34.80
2023-02-11T10:13:02.672Z,44.00
2023-02-11T10:15:47.713Z,42.80
2023-02-11T10:18:47.742Z,52.40
2023-02-11T10:21:38.722Z,47.40
2023-02-11T10:24:17.480Z,30.90
2023-02-11T10:26:53.154Z,33.80
2023-02-11T10:29:42.182Z,31.70
2023-02-11T10:32:32.187Z,24.70
2023-02-11T10:35:21.266Z,43.20
2023-02-11T10:37:55.578Z,32.30
2023-02-11T10:40:32.495Z,27.60
2023-02-11T10:43:12.229Z,24.20
2023-02-11T10:45:51.390Z,27.30
2023-02-11T10:48:49.496Z,24.60
2023-02-11T10:51:27.094Z,44.80
2023-02-11T10:54:21.386Z,30.60
2023-02-11T10:57:02.265Z,29.90
2023-02-11T10:59:40.501Z,27.10
2023-02-11T11:02:32.156Z,27.50
2023-02-11T11:05:17.629Z,31.30
2023-02-11T11:08:00.784Z,27.10
2023-02-11T11:10:46.044Z,29.90
2023-02-11T11:13:33.504Z,30.80
2023-02-11T11:16:29.818Z,32.10
2023-02-11T11:19:26.691Z,33.80
2023-02-11T11:22:00.788Z,32.00
2023-02-11T11:24:46.800Z,27.30
2023-02-11T11:27:27.254Z,27.90
2023-02-11T11:30:03.382Z,26.30
2023-02-11T11:32:39.963Z,33.70
2023-02-11T11:35:28.638Z,30.70
2023-02-11T11:38:06.747Z,31.20
2023-02-11T11:40:41.286Z,30.60
2023-02-11T11:43:24.913Z,31.00
2023-02-11T11:46:02.963Z,32.40
2023-02-11T11:48:41.295Z,28.40
2023-02-11T11:51:17.385Z,33.80
2023-02-11T11:54:01.243Z,27.30
2023-02-11T11:56:41.469Z,29.00
2023-02-11T11:59:17.307Z,31.90
2023-02-11T12:02:13.214Z,29.90
2023-02-11T12:05:05.299Z,31.90
2023-02-11T12:07:56.773Z,26.90
2023-02-11T12:10:53.641Z,28.90
2023-02-11T12:13:46.785Z,30.40
2023-02-11T12:16:37.379Z,31.80
2023-02-11T12:19:55.128Z,31.30
2023-02-11T12:22:50.959Z,34.20
2023-02-11T12:25:36.409Z,33.40
2023-02-11T12:28:31.008Z,35.10
2023-02-11T12:31:26.126Z,93.80
2023-02-11T12:35:05.186Z,36.00
2023-02-11T12:37:59.811Z,24.20
2023-02-11T12:40:45.395Z,31.30
2023-02-11T12:43:31.559Z,31.10
2023-02-11T12:46:39.714Z,28.30
2023-02-11T12:50:02.102Z,29.90
2023-02-11T12:52:54.826Z,35.60
2023-02-11T12:55:37.070Z,30.20
2023-02-11T12:58:29.718Z,29.10
2023-02-11T13:01:17.286Z,32.60
2023-02-11T13:04:03.824Z,28.80
2023-02-11T13:06:45.966Z,29.30
2023-02-11T13:09:27.808Z,29.50
2023-02-11T13:12:29.033Z,34.00
2023-02-11T13:15:08.167Z,28.70
2023-02-11T13:17:53.460Z,26.80
2023-02-11T13:20:41.693Z,30.60
2023-02-11T13:23:36.180Z,30.60
2023-02-11T13:26:17.958Z,29.30
2023-02-11T13:28:58.568Z,28.30
2023-02-11T13:31:32.492Z,25.70
2023-02-11T13:34:24.025Z,27.20
2023-02-11T13:37:02.003Z,27.70
2023-02-11T13:39:35.783Z,29.10
2023-02-11T13:42:19.134Z,28.30
2023-02-11T13:44:53.364Z,28.40
2023-02-11T13:47:37.896Z,29.00
2023-02-11T13:50:26.659Z,27.10
2023-02-11T13:53:07.428Z,24.60
2023-02-11T13:55:43.888Z,27.60
2023-02-11T13:58:47.907Z,28.90
2023-02-11T14:02:13.943Z,28.30
2023-02-11T14:05:42.702Z,28.50
2023-02-11T14:08:46.116Z,32.00
2023-02-11T14:11:55.403Z,30.80
2023-02-11T14:14:31.942Z,27.00
2023-02-11T14:17:35.764Z,30.70
2023-02-11T14:20:44.682Z,28.30
2023-02-11T14:23:29.498Z,29.00
2023-02-11T14:26:34.697Z,28.20
2023-02-11T14:29:23.626Z,23.50
2023-02-11T14:32:10.915Z,29.10
2023-02-11T14:35:02.285Z,28.90
2023-02-11T14:37:50.779Z,27.10
2023-02-11T14:40:33.189Z,29.70
2023-02-11T14:43:16.188Z,27.00
2023-02-11T14:45:58.032Z,25.60
2023-02-11T14:48:38.179Z,29.50
2023-02-11T14:51:17.509Z,29.20
2023-02-11T14:53:57.935Z,24.70
2023-02-11T14:56:34.529Z,29.60
2023-02-11T14:59:20.819Z,29.10
2023-02-11T15:01:56.656Z,27.90
2023-02-11T15:04:36.259Z,31.00
2023-02-11T15:07:14.973Z,25.80
2023-02-11T15:09:52.955Z,26.90
2023-02-11T15:12:30.255Z,26.30
2023-02-11T15:15:05.707Z,26.80
2023-02-11T15:17:40.224Z,27.80
2023-02-11T15:20:27.179Z,27.10
2023-02-11T15:23:05.692Z,28.70
2023-02-11T15:25:52.990Z,24.50
2023-02-11T15:28:30.675Z,27.00
2023-02-11T15:31:16.642Z,28.10
2023-02-11T15:33:51.402Z,23.40
2023-02-11T15:36:33.178Z,28.00
2023-02-11T15:39:31.626Z,21.30
2023-02-11T15:42:28.194Z,27.50
2023-02-11T15:45:29.138Z,24.60
2023-02-11T15:48:11.474Z,26.40
2023-02-11T15:50:53.542Z,24.10
2023-02-11T15:53:34.595Z,26.90
2023-02-11T15:56:18.665Z,26.50
2023-02-11T15:58:55.965Z,24.60
2023-02-11T16:01:40.392Z,22.80
2023-02-11T16:04:23.685Z,27.50
2023-02-11T16:06:58.977Z,25.80
2023-02-11T16:09:39.895Z,25.40
2023-02-11T16:12:29.383Z,25.30
2023-02-11T16:15:40.343Z,25.40
2023-02-11T16:18:38.417Z,26.00
2023-02-11T16:21:22.458Z,26.50
2023-02-11T16:23:59.935Z,22.10
2023-02-11T16:26:39.293Z,21.90
2023-02-11T16:29:20.326Z,25.70
2023-02-11T16:31:56.150Z,26.90
2023-02-11T16:34:30.670Z,22.60
2023-02-11T16:37:08.938Z,19.90
2023-02-11T16:39:43.267Z,23.40
2023-02-11T16:42:18.004Z,24.60
2023-02-11T16:44:52.339Z,23.30
2023-02-11T16:47:31.198Z,25.90
2023-02-11T16:50:09.581Z,26.00
2023-02-11T16:52:46.517Z,23.10
2023-02-11T16:55:22.088Z,22.60
2023-02-11T16:57:56.450Z,22.50
2023-02-11T17:00:32.035Z,23.60
2023-02-11T17:03:09.391Z,25.50
2023-02-11T17:05:54.923Z,21.60
2023-02-11T17:08:30.139Z,19.10
2023-02-11T17:11:04.130Z,21.40
2023-02-11T17:13:39.769Z,23.70
2023-02-11T17:16:22.705Z,20.90
2023-02-11T17:18:56.566Z,21.70
2023-02-11T17:21:32.123Z,20.80
2023-02-11T17:24:06.557Z,23.60
2023-02-11T17:26:40.777Z,20.80
2023-02-11T17:29:17.789Z,18.00
2023-02-11T17:31:52.696Z,22.90
2023-02-11T17:34:29.292Z,24.30
2023-02-11T17:37:09.415Z,21.70
2023-02-11T17:39:44.835Z,23.40
2023-02-11T17:42:20.161Z,22.90
2023-02-11T17:44:54.438Z,20.90
2023-02-11T17:47:28.558Z,22.90
2023-02-11T17:50:03.175Z,20.90
2023-02-11T17:52:38.003Z,20.70
2023-02-11T17:55:12.676Z,20.50
2023-02-11T17:57:46.787Z,21.50
2023-02-11T18:00:24.837Z,23.60
2023-02-11T18:03:02.793Z,21.90
2023-02-11T18:05:40.254Z,22.30
2023-02-11T18:08:14.288Z,19.70
2023-02-11T18:10:48.140Z,20.20
2023-02-11T18:13:23.092Z,18.70
2023-02-11T18:15:57.488Z,15.70
2023-02-11T18:18:32.024Z,20.70
2023-02-11T18:21:08.995Z,21.10
2023-02-11T18:23:42.839Z,19.60
2023-02-11T18:26:19.490Z,20.30
2023-02-11T18:28:53.952Z,17.90
2023-02-11T18:31:28.429Z,19.40
2023-02-11T18:34:02.630Z,16.30
2023-02-11T18:36:37.150Z,17.00
2023-02-11T18:39:11.199Z,17.60
2023-02-11T18:41:45.319Z,17.40
2023-02-11T18:44:22.468Z,19.00
2023-02-11T18:46:57.622Z,18.20
2023-02-11T18:49:33.148Z,20.00
2023-02-11T18:52:08.044Z,19.00
2023-02-11T18:54:42.335Z,17.90
2023-02-11T18:57:16.445Z,20.10
2023-02-11T18:59:51.000Z,18.90
2023-02-11T19:02:25.188Z,18.00
2023-02-11T19:05:00.443Z,17.10
2023-02-11T19:07:34.493Z,17.90
2023-02-11T19:10:10.486Z,19.10
2023-02-11T19:12:44.606Z,21.40
2023-02-11T19:15:19.136Z,21.00
2023-02-11T19:17:53.307Z,20.90
2023-02-11T19:20:27.463Z,19.80
2023-02-11T19:23:02.034Z,23.60
2023-02-11T19:25:36.196Z,20.80
2023-02-11T19:28:10.516Z,18.50
2023-02-11T19:30:44.825Z,20.30
2023-02-11T19:33:19.065Z,21.60
2023-02-11T19:35:53.532Z,20.20
2023-02-11T19:38:28.543Z,21.20
2023-02-11T19:41:02.890Z,21.50
2023-02-11T19:52:12.218Z,20.20
2023-02-11T19:54:46.262Z,19.40
2023-02-11T19:57:20.577Z,15.00
2023-02-11T19:59:57.101Z,18.60
2023-02-11T20:02:32.392Z,20.10
2023-02-11T20:05:07.108Z,17.30
2023-02-11T20:07:41.115Z,18.50
2023-02-11T20:10:16.041Z,20.10
2023-02-11T20:12:50.255Z,17.50
2023-02-11T20:15:24.685Z,19.50
2023-02-11T20:17:58.770Z,21.20
2023-02-11T20:20:32.884Z,18.50
2023-02-11T20:23:06.917Z,16.50
2023-02-11T20:25:43.362Z,17.70
2023-02-11T20:28:17.334Z,18.20
2023-02-11T20:31:00.270Z,19.20
2023-02-11T20:33:36.260Z,17.90
2023-02-11T20:36:16.282Z,20.00
2023-02-11T20:38:50.917Z,19.90
2023-02-11T20:41:28.793Z,18.90
2023-02-11T20:44:05.978Z,17.00
2023-02-11T20:46:46.118Z,19.00
2023-02-11T20:49:23.022Z,20.50
2023-02-11T20:51:58.578Z,19.70
2023-02-11T20:54:32.697Z,16.80
2023-02-11T20:57:07.253Z,21.60
2023-02-11T20:59:41.349Z,19.70
2023-02-11T21:02:15.594Z,19.90
2023-02-11T21:04:49.563Z,18.50
2023-02-11T21:07:23.575Z,20.90
2023-02-11T21:09:57.669Z,19.90
2023-02-11T21:12:32.025Z,19.20
2023-02-11T21:15:09.934Z,18.70
2023-02-11T21:17:43.996Z,18.60
2023-02-11T21:20:18.424Z,19.50
2023-02-11T21:22:52.680Z,20.40
2023-02-11T21:25:26.960Z,17.30
2023-02-11T21:28:01.009Z,18.70
2023-02-11T21:30:35.155Z,19.40
2023-02-11T21:33:09.506Z,21.60
2023-02-11T21:35:43.591Z,18.50
2023-02-11T21:38:18.002Z,19.70
2023-02-11T21:40:52.583Z,20.80
2023-02-11T21:43:27.110Z,21.20
2023-02-11T21:46:01.177Z,24.00
2023-02-11T21:48:35.438Z,18.20
2023-02-11T21:51:14.100Z,20.60
2023-02-11T21:53:48.389Z,24.30
2023-02-11T21:56:23.480Z,24.60
2023-02-11T21:58:59.484Z,20.50
2023-02-11T22:01:37.047Z,20.90
2023-02-11T22:04:12.457Z,23.00
2023-02-11T22:06:48.699Z,20.30
2023-02-11T22:09:22.798Z,19.70
2023-02-11T22:11:57.139Z,21.80
2023-02-11T22:14:32.380Z,24.80
2023-02-11T22:17:06.818Z,20.20
2023-02-11T22:19:41.147Z,22.00
2023-02-11T22:22:18.368Z,24.30
2023-02-11T22:24:54.244Z,25.20
2023-02-11T22:27:28.156Z,20.40
2023-02-11T22:30:02.875Z,19.90
2023-02-11T22:32:37.506Z,19.10
2023-02-11T22:35:12.134Z,21.00
2023-02-11T22:37:46.478Z,22.40
2023-02-11T22:40:20.952Z,22.10
2023-02-11T22:42:54.893Z,20.10
2023-02-11T22:45:29.033Z,20.50
2023-02-11T22:48:03.706Z,22.20
2023-02-11T22:50:38.770Z,23.10
2023-02-11T22:53:12.673Z,22.40
2023-02-11T22:55:46.616Z,21.20
2023-02-11T22:58:20.762Z,25.50
2023-02-11T23:00:54.791Z,25.40
2023-02-11T23:03:29.385Z,20.90
2023-02-11T23:06:04.270Z,23.90
2023-02-11T23:08:43.054Z,18.30
2023-02-11T23:11:21.135Z,20.20
2023-02-11T23:13:56.715Z,23.80
2023-02-11T23:16:34.533Z,24.70
2023-02-11T23:19:12.375Z,24.80
2023-02-11T23:21:47.850Z,18.70
2023-02-11T23:24:21.691Z,23.70
2023-02-11T23:26:55.818Z,30.40
2023-02-11T23:29:29.986Z,28.80
2023-02-11T23:32:04.108Z,21.80
2023-02-11T23:34:38.525Z,26.30
2023-02-11T23:37:12.730Z,18.40
2023-02-11T23:39:46.958Z,22.90
2023-02-11T23:42:21.153Z,25.50
2023-02-11T23:44:55.076Z,24.90
2023-02-11T23:47:28.796Z,24.60
2023-02-11T23:50:02.848Z,24.40
2023-02-11T23:52:37.010Z,23.50
2023-02-11T23:55:12.083Z,23.00
2023-02-11T23:57:46.150Z,25.90
